sensor_id;sensor_type;location;lat;lon;timestamp;temperature;humidity
82183;DHT22;71763;52.220;13.000;2023-08-30T00:02:04;14.80;64.20
82183;DHT22;71763;52.220;13.000;2023-08-30T00:04:30;14.70;64.20
82183;DHT22;71763;52.220;13.000;2023-08-30T00:06:56;14.70;64.30
82183;DHT22;71763;52.220;13.000;2023-08-30T00:09:21;14.70;64.40
82183;DHT22;71763;52.220;13.000;2023-08-30T00:11:46;14.60;64.40
82183;DHT22;71763;52.220;13.000;2023-08-30T00:14:12;14.60;64.40
82183;DHT22;71763;52.220;13.000;2023-08-30T00:16:38;14.60;64.40
82183;DHT22;71763;52.220;13.000;2023-08-30T00:19:04;14.60;64.40
82183;DHT22;71763;52.220;13.000;2023-08-30T00:21:29;14.50;64.30
82183;DHT22;71763;52.220;13.000;2023-08-30T00:23:55;14.50;64.40
82183;DHT22;71763;52.220;13.000;2023-08-30T00:26:21;14.50;64.50
82183;DHT22;71763;52.220;13.000;2023-08-30T00:28:46;14.50;64.40
82183;DHT22;71763;52.220;13.000;2023-08-30T00:31:12;14.50;64.30
82183;DHT22;71763;52.220;13.000;2023-08-30T00:33:37;14.50;64.30
82183;DHT22;71763;52.220;13.000;2023-08-30T00:36:04;14.50;64.30
82183;DHT22;71763;52.220;13.000;2023-08-30T00:38:33;14.50;64.30
82183;DHT22;71763;52.220;13.000;2023-08-30T00:40:58;14.50;64.30
82183;DHT22;71763;52.220;13.000;2023-08-30T00:43:24;14.50;64.30
82183;DHT22;71763;52.220;13.000;2023-08-30T00:45:50;14.50;64.20
82183;DHT22;71763;52.220;13.000;2023-08-30T00:48:17;14.50;64.20
82183;DHT22;71763;52.220;13.000;2023-08-30T00:50:44;14.50;64.30
82183;DHT22;71763;52.220;13.000;2023-08-30T00:53:10;14.50;64.30
82183;DHT22;71763;52.220;13.000;2023-08-30T00:55:37;14.50;64.30
82183;DHT22;71763;52.220;13.000;2023-08-30T00:58:03;14.40;64.30
82183;DHT22;71763;52.220;13.000;2023-08-30T01:00:32;14.40;64.30
82183;DHT22;71763;52.220;13.000;2023-08-30T01:02:58;14.30;64.30
82183;DHT22;71763;52.220;13.000;2023-08-30T01:05:24;14.30;64.40
82183;DHT22;71763;52.220;13.000;2023-08-30T01:07:51;14.30;64.40
82183;DHT22;71763;52.220;13.000;2023-08-30T01:10:18;14.30;64.40
82183;DHT22;71763;52.220;13.000;2023-08-30T01:12:49;14.30;64.40
82183;DHT22;71763;52.220;13.000;2023-08-30T01:15:21;14.30;64.50
82183;DHT22;71763;52.220;13.000;2023-08-30T01:17:48;14.30;64.40
82183;DHT22;71763;52.220;13.000;2023-08-30T01:20:15;14.30;64.50
82183;DHT22;71763;52.220;13.000;2023-08-30T01:22:57;14.30;64.40
82183;DHT22;71763;52.220;13.000;2023-08-30T01:28:37;14.30;64.40
82183;DHT22;71763;52.220;13.000;2023-08-30T01:31:03;14.30;64.40
82183;DHT22;71763;52.220;13.000;2023-08-30T01:33:30;14.40;64.40
82183;DHT22;71763;52.220;13.000;2023-08-30T01:35:59;14.40;64.40
82183;DHT22;71763;52.220;13.000;2023-08-30T01:38:26;14.40;64.40
82183;DHT22;71763;52.220;13.000;2023-08-30T01:40:53;14.40;64.40
82183;DHT22;71763;52.220;13.000;2023-08-30T01:43:20;14.30;64.30
82183;DHT22;71763;52.220;13.000;2023-08-30T01:45:47;14.40;64.40
82183;DHT22;71763;52.220;13.000;2023-08-30T01:48:17;14.40;64.40
82183;DHT22;71763;52.220;13.000;2023-08-30T01:50:44;14.40;64.40
82183;DHT22;71763;52.220;13.000;2023-08-30T01:53:11;14.40;64.40
82183;DHT22;71763;52.220;13.000;2023-08-30T01:55:37;14.50;64.40
82183;DHT22;71763;52.220;13.000;2023-08-30T01:58:04;14.50;64.40
82183;DHT22;71763;52.220;13.000;2023-08-30T02:00:29;14.50;64.40
82183;DHT22;71763;52.220;13.000;2023-08-30T02:02:56;14.50;64.30
82183;DHT22;71763;52.220;13.000;2023-08-30T02:05:21;14.50;64.30
82183;DHT22;71763;52.220;13.000;2023-08-30T02:08:05;14.50;64.30
82183;DHT22;71763;52.220;13.000;2023-08-30T02:10:35;14.60;64.30
82183;DHT22;71763;52.220;13.000;2023-08-30T02:13:02;14.60;64.30
82183;DHT22;71763;52.220;13.000;2023-08-30T02:15:30;14.50;64.30
82183;DHT22;71763;52.220;13.000;2023-08-30T02:17:57;14.50;64.30
82183;DHT22;71763;52.220;13.000;2023-08-30T02:20:23;14.50;64.30
82183;DHT22;71763;52.220;13.000;2023-08-30T02:22:49;14.60;64.50
82183;DHT22;71763;52.220;13.000;2023-08-30T02:25:15;14.60;64.50
82183;DHT22;71763;52.220;13.000;2023-08-30T02:27:40;14.50;64.50
82183;DHT22;71763;52.220;13.000;2023-08-30T02:30:07;14.50;64.50
82183;DHT22;71763;52.220;13.000;2023-08-30T02:32:32;14.60;64.60
82183;DHT22;71763;52.220;13.000;2023-08-30T02:34:58;14.50;64.50
82183;DHT22;71763;52.220;13.000;2023-08-30T02:37:24;14.50;64.40
82183;DHT22;71763;52.220;13.000;2023-08-30T02:39:49;14.60;64.60
82183;DHT22;71763;52.220;13.000;2023-08-30T02:42:15;14.60;64.60
82183;DHT22;71763;52.220;13.000;2023-08-30T02:44:40;14.60;64.60
82183;DHT22;71763;52.220;13.000;2023-08-30T02:47:06;14.60;64.60
82183;DHT22;71763;52.220;13.000;2023-08-30T02:49:31;14.60;64.60
82183;DHT22;71763;52.220;13.000;2023-08-30T02:51:57;14.60;64.70
82183;DHT22;71763;52.220;13.000;2023-08-30T02:54:22;14.50;64.60
82183;DHT22;71763;52.220;13.000;2023-08-30T02:56:48;14.60;64.80
82183;DHT22;71763;52.220;13.000;2023-08-30T02:59:14;14.60;64.70
82183;DHT22;71763;52.220;13.000;2023-08-30T03:01:40;14.60;64.70
82183;DHT22;71763;52.220;13.000;2023-08-30T03:04:06;14.60;64.80
82183;DHT22;71763;52.220;13.000;2023-08-30T03:06:35;14.60;64.80
82183;DHT22;71763;52.220;13.000;2023-08-30T03:09:01;14.50;64.80
82183;DHT22;71763;52.220;13.000;2023-08-30T03:11:27;14.50;64.90
82183;DHT22;71763;52.220;13.000;2023-08-30T03:13:53;14.50;65.00
82183;DHT22;71763;52.220;13.000;2023-08-30T03:16:19;14.40;65.00
82183;DHT22;71763;52.220;13.000;2023-08-30T03:18:45;14.40;65.10
82183;DHT22;71763;52.220;13.000;2023-08-30T03:21:11;14.50;65.20
82183;DHT22;71763;52.220;13.000;2023-08-30T03:23:37;14.40;65.00
82183;DHT22;71763;52.220;13.000;2023-08-30T03:26:14;14.50;65.10
82183;DHT22;71763;52.220;13.000;2023-08-30T03:28:40;14.50;65.00
82183;DHT22;71763;52.220;13.000;2023-08-30T03:31:20;14.50;65.00
82183;DHT22;71763;52.220;13.000;2023-08-30T03:33:47;14.50;65.00
82183;DHT22;71763;52.220;13.000;2023-08-30T03:36:15;14.50;65.00
82183;DHT22;71763;52.220;13.000;2023-08-30T03:38:41;14.50;64.90
82183;DHT22;71763;52.220;13.000;2023-08-30T03:41:07;14.60;65.00
82183;DHT22;71763;52.220;13.000;2023-08-30T03:43:33;14.50;64.90
82183;DHT22;71763;52.220;13.000;2023-08-30T03:46:02;14.50;65.00
82183;DHT22;71763;52.220;13.000;2023-08-30T03:48:29;14.60;65.10
82183;DHT22;71763;52.220;13.000;2023-08-30T03:50:55;14.50;65.00
82183;DHT22;71763;52.220;13.000;2023-08-30T03:53:20;14.50;64.90
82183;DHT22;71763;52.220;13.000;2023-08-30T03:55:46;14.50;64.90
82183;DHT22;71763;52.220;13.000;2023-08-30T03:58:11;14.60;65.00
82183;DHT22;71763;52.220;13.000;2023-08-30T04:00:38;14.60;64.90
82183;DHT22;71763;52.220;13.000;2023-08-30T04:03:05;14.50;64.90
82183;DHT22;71763;52.220;13.000;2023-08-30T04:05:34;14.50;64.90
82183;DHT22;71763;52.220;13.000;2023-08-30T04:08:02;14.60;64.90
82183;DHT22;71763;52.220;13.000;2023-08-30T04:10:27;14.60;65.00
82183;DHT22;71763;52.220;13.000;2023-08-30T04:12:53;14.50;64.90
82183;DHT22;71763;52.220;13.000;2023-08-30T04:15:18;14.50;64.90
82183;DHT22;71763;52.220;13.000;2023-08-30T04:17:44;14.50;64.80
82183;DHT22;71763;52.220;13.000;2023-08-30T04:20:10;14.50;64.90
82183;DHT22;71763;52.220;13.000;2023-08-30T04:22:36;14.50;64.90
82183;DHT22;71763;52.220;13.000;2023-08-30T04:25:01;14.50;64.90
82183;DHT22;71763;52.220;13.000;2023-08-30T04:27:27;14.50;64.90
82183;DHT22;71763;52.220;13.000;2023-08-30T04:29:53;14.50;65.00
82183;DHT22;71763;52.220;13.000;2023-08-30T04:32:18;14.50;65.00
82183;DHT22;71763;52.220;13.000;2023-08-30T04:34:44;14.50;64.90
82183;DHT22;71763;52.220;13.000;2023-08-30T04:37:09;14.50;64.90
82183;DHT22;71763;52.220;13.000;2023-08-30T04:39:35;14.50;65.00
82183;DHT22;71763;52.220;13.000;2023-08-30T04:42:00;14.50;64.90
82183;DHT22;71763;52.220;13.000;2023-08-30T04:44:28;14.60;65.00
82183;DHT22;71763;52.220;13.000;2023-08-30T04:46:54;14.60;65.00
82183;DHT22;71763;52.220;13.000;2023-08-30T04:49:20;14.60;65.00
82183;DHT22;71763;52.220;13.000;2023-08-30T04:51:46;14.60;65.00
82183;DHT22;71763;52.220;13.000;2023-08-30T04:54:11;14.60;65.00
82183;DHT22;71763;52.220;13.000;2023-08-30T04:56:37;14.70;65.10
82183;DHT22;71763;52.220;13.000;2023-08-30T04:59:02;14.70;64.90
82183;DHT22;71763;52.220;13.000;2023-08-30T05:01:29;14.70;65.00
82183;DHT22;71763;52.220;13.000;2023-08-30T05:03:55;14.70;64.90
82183;DHT22;71763;52.220;13.000;2023-08-30T05:06:21;14.70;65.00
82183;DHT22;71763;52.220;13.000;2023-08-30T05:08:46;14.70;65.00
82183;DHT22;71763;52.220;13.000;2023-08-30T05:11:12;14.80;65.20
82183;DHT22;71763;52.220;13.000;2023-08-30T05:13:37;14.70;65.10
82183;DHT22;71763;52.220;13.000;2023-08-30T05:16:03;14.80;65.20
82183;DHT22;71763;52.220;13.000;2023-08-30T05:18:28;14.80;65.20
82183;DHT22;71763;52.220;13.000;2023-08-30T05:20:54;14.80;65.20
82183;DHT22;71763;52.220;13.000;2023-08-30T05:23:20;14.80;65.20
82183;DHT22;71763;52.220;13.000;2023-08-30T05:25:45;14.90;65.20
82183;DHT22;71763;52.220;13.000;2023-08-30T05:28:12;14.90;65.10
82183;DHT22;71763;52.220;13.000;2023-08-30T05:30:41;14.90;65.10
82183;DHT22;71763;52.220;13.000;2023-08-30T05:33:07;14.90;65.10
82183;DHT22;71763;52.220;13.000;2023-08-30T05:35:32;14.90;65.10
82183;DHT22;71763;52.220;13.000;2023-08-30T05:37:58;15.00;65.20
82183;DHT22;71763;52.220;13.000;2023-08-30T05:40:23;15.00;65.00
82183;DHT22;71763;52.220;13.000;2023-08-30T05:42:50;15.10;65.00
82183;DHT22;71763;52.220;13.000;2023-08-30T05:45:15;15.20;65.10
82183;DHT22;71763;52.220;13.000;2023-08-30T05:47:41;15.20;64.90
82183;DHT22;71763;52.220;13.000;2023-08-30T05:50:07;15.30;64.90
82183;DHT22;71763;52.220;13.000;2023-08-30T05:52:32;15.40;64.90
82183;DHT22;71763;52.220;13.000;2023-08-30T05:54:58;15.40;64.90
82183;DHT22;71763;52.220;13.000;2023-08-30T05:57:24;15.40;64.70
82183;DHT22;71763;52.220;13.000;2023-08-30T05:59:50;15.50;64.80
82183;DHT22;71763;52.220;13.000;2023-08-30T06:02:16;15.50;64.80
82183;DHT22;71763;52.220;13.000;2023-08-30T06:04:42;15.50;64.80
82183;DHT22;71763;52.220;13.000;2023-08-30T06:07:07;15.60;64.70
82183;DHT22;71763;52.220;13.000;2023-08-30T06:09:33;15.70;64.70
82183;DHT22;71763;52.220;13.000;2023-08-30T06:11:59;15.70;64.60
82183;DHT22;71763;52.220;13.000;2023-08-30T06:14:24;15.80;64.60
82183;DHT22;71763;52.220;13.000;2023-08-30T06:16:50;15.80;64.50
82183;DHT22;71763;52.220;13.000;2023-08-30T06:19:15;15.80;64.40
82183;DHT22;71763;52.220;13.000;2023-08-30T06:21:41;15.90;64.40
82183;DHT22;71763;52.220;13.000;2023-08-30T06:24:06;16.00;64.30
82183;DHT22;71763;52.220;13.000;2023-08-30T06:26:32;16.00;64.30
82183;DHT22;71763;52.220;13.000;2023-08-30T06:28:58;16.10;64.30
82183;DHT22;71763;52.220;13.000;2023-08-30T06:31:23;16.10;64.30
82183;DHT22;71763;52.220;13.000;2023-08-30T06:33:49;16.10;64.20
82183;DHT22;71763;52.220;13.000;2023-08-30T06:36:16;16.10;64.20
82183;DHT22;71763;52.220;13.000;2023-08-30T06:38:42;16.10;64.30
82183;DHT22;71763;52.220;13.000;2023-08-30T06:41:08;16.10;64.30
82183;DHT22;71763;52.220;13.000;2023-08-30T06:43:34;16.10;64.30
82183;DHT22;71763;52.220;13.000;2023-08-30T06:45:59;16.10;64.30
82183;DHT22;71763;52.220;13.000;2023-08-30T06:48:25;16.10;64.30
82183;DHT22;71763;52.220;13.000;2023-08-30T06:50:50;16.10;64.20
82183;DHT22;71763;52.220;13.000;2023-08-30T06:53:16;16.20;64.20
82183;DHT22;71763;52.220;13.000;2023-08-30T06:55:41;16.20;64.20
82183;DHT22;71763;52.220;13.000;2023-08-30T06:58:07;16.20;64.20
82183;DHT22;71763;52.220;13.000;2023-08-30T07:00:32;16.30;64.00
82183;DHT22;71763;52.220;13.000;2023-08-30T07:02:58;16.40;64.10
82183;DHT22;71763;52.220;13.000;2023-08-30T07:05:23;16.40;63.50
82183;DHT22;71763;52.220;13.000;2023-08-30T07:07:49;16.60;63.60
82183;DHT22;71763;52.220;13.000;2023-08-30T07:10:15;16.70;63.70
82183;DHT22;71763;52.220;13.000;2023-08-30T07:12:40;16.80;63.80
82183;DHT22;71763;52.220;13.000;2023-08-30T07:15:06;16.90;63.90
82183;DHT22;71763;52.220;13.000;2023-08-30T07:17:32;17.10;64.10
82183;DHT22;71763;52.220;13.000;2023-08-30T07:19:59;17.20;64.00
82183;DHT22;71763;52.220;13.000;2023-08-30T07:22:24;17.30;63.80
82183;DHT22;71763;52.220;13.000;2023-08-30T07:24:50;17.40;63.60
82183;DHT22;71763;52.220;13.000;2023-08-30T07:27:16;17.50;63.40
82183;DHT22;71763;52.220;13.000;2023-08-30T07:29:42;17.80;63.20
82183;DHT22;71763;52.220;13.000;2023-08-30T07:32:09;18.20;62.40
82183;DHT22;71763;52.220;13.000;2023-08-30T07:34:35;18.30;61.80
82183;DHT22;71763;52.220;13.000;2023-08-30T07:37:01;18.40;61.80
82183;DHT22;71763;52.220;13.000;2023-08-30T07:39:26;18.40;62.00
82183;DHT22;71763;52.220;13.000;2023-08-30T07:41:52;18.40;62.10
82183;DHT22;71763;52.220;13.000;2023-08-30T07:44:17;18.60;62.10
82183;DHT22;71763;52.220;13.000;2023-08-30T07:46:45;18.70;61.90
82183;DHT22;71763;52.220;13.000;2023-08-30T07:49:10;18.70;61.90
82183;DHT22;71763;52.220;13.000;2023-08-30T07:51:36;18.70;62.00
82183;DHT22;71763;52.220;13.000;2023-08-30T07:54:01;18.80;62.20
82183;DHT22;71763;52.220;13.000;2023-08-30T07:56:27;18.90;62.30
82183;DHT22;71763;52.220;13.000;2023-08-30T07:58:53;18.90;62.30
82183;DHT22;71763;52.220;13.000;2023-08-30T08:01:19;19.00;62.30
82183;DHT22;71763;52.220;13.000;2023-08-30T08:03:44;19.10;62.30
82183;DHT22;71763;52.220;13.000;2023-08-30T08:06:10;19.20;62.30
82183;DHT22;71763;52.220;13.000;2023-08-30T08:08:35;19.30;62.10
82183;DHT22;71763;52.220;13.000;2023-08-30T08:11:01;19.40;62.10
82183;DHT22;71763;52.220;13.000;2023-08-30T08:13:26;19.50;62.10
82183;DHT22;71763;52.220;13.000;2023-08-30T08:15:52;19.50;62.00
82183;DHT22;71763;52.220;13.000;2023-08-30T08:18:17;19.50;62.00
82183;DHT22;71763;52.220;13.000;2023-08-30T08:20:43;19.50;62.20
82183;DHT22;71763;52.220;13.000;2023-08-30T08:23:08;19.50;62.90
82183;DHT22;71763;52.220;13.000;2023-08-30T08:25:34;19.60;62.20
82183;DHT22;71763;52.220;13.000;2023-08-30T08:27:59;19.60;62.20
82183;DHT22;71763;52.220;13.000;2023-08-30T08:30:25;19.70;62.20
82183;DHT22;71763;52.220;13.000;2023-08-30T08:32:50;19.80;62.10
82183;DHT22;71763;52.220;13.000;2023-08-30T08:35:16;19.90;62.10
82183;DHT22;71763;52.220;13.000;2023-08-30T08:37:42;19.90;62.00
82183;DHT22;71763;52.220;13.000;2023-08-30T08:40:08;20.00;62.00
82183;DHT22;71763;52.220;13.000;2023-08-30T08:42:35;20.00;61.90
82183;DHT22;71763;52.220;13.000;2023-08-30T08:45:02;20.00;62.10
82183;DHT22;71763;52.220;13.000;2023-08-30T08:47:30;20.00;62.20
82183;DHT22;71763;52.220;13.000;2023-08-30T08:49:56;20.00;62.10
82183;DHT22;71763;52.220;13.000;2023-08-30T08:52:23;20.10;62.10
82183;DHT22;71763;52.220;13.000;2023-08-30T08:54:49;20.20;61.90
82183;DHT22;71763;52.220;13.000;2023-08-30T08:57:15;20.30;62.00
82183;DHT22;71763;52.220;13.000;2023-08-30T08:59:40;20.20;61.70
82183;DHT22;71763;52.220;13.000;2023-08-30T09:02:07;20.30;61.80
82183;DHT22;71763;52.220;13.000;2023-08-30T09:04:33;20.40;61.60
82183;DHT22;71763;52.220;13.000;2023-08-30T09:06:59;20.50;61.50
82183;DHT22;71763;52.220;13.000;2023-08-30T09:09:26;20.70;61.60
82183;DHT22;71763;52.220;13.000;2023-08-30T09:11:51;20.70;61.60
82183;DHT22;71763;52.220;13.000;2023-08-30T09:14:18;20.70;61.60
82183;DHT22;71763;52.220;13.000;2023-08-30T09:17:01;20.70;61.60
82183;DHT22;71763;52.220;13.000;2023-08-30T09:19:27;20.80;61.70
82183;DHT22;71763;52.220;13.000;2023-08-30T09:21:53;20.80;61.50
82183;DHT22;71763;52.220;13.000;2023-08-30T09:24:19;20.80;61.40
82183;DHT22;71763;52.220;13.000;2023-08-30T09:26:48;20.90;61.30
82183;DHT22;71763;52.220;13.000;2023-08-30T09:29:17;21.10;61.10
82183;DHT22;71763;52.220;13.000;2023-08-30T09:31:43;21.30;60.70
82183;DHT22;71763;52.220;13.000;2023-08-30T09:34:09;21.30;60.50
82183;DHT22;71763;52.220;13.000;2023-08-30T09:36:37;21.40;60.50
82183;DHT22;71763;52.220;13.000;2023-08-30T09:39:14;21.60;60.30
82183;DHT22;71763;52.220;13.000;2023-08-30T09:41:45;21.80;60.20
82183;DHT22;71763;52.220;13.000;2023-08-30T09:44:20;21.90;59.80
82183;DHT22;71763;52.220;13.000;2023-08-30T09:46:50;22.10;59.50
82183;DHT22;71763;52.220;13.000;2023-08-30T09:49:18;22.30;59.20
82183;DHT22;71763;52.220;13.000;2023-08-30T09:51:46;22.60;58.70
82183;DHT22;71763;52.220;13.000;2023-08-30T09:54:17;22.90;58.00
82183;DHT22;71763;52.220;13.000;2023-08-30T09:56:44;23.10;58.20
82183;DHT22;71763;52.220;13.000;2023-08-30T09:59:11;23.30;58.30
82183;DHT22;71763;52.220;13.000;2023-08-30T10:01:42;23.20;58.20
82183;DHT22;71763;52.220;13.000;2023-08-30T10:04:08;23.10;58.20
82183;DHT22;71763;52.220;13.000;2023-08-30T10:06:39;23.00;58.40
82183;DHT22;71763;52.220;13.000;2023-08-30T10:09:06;23.10;58.60
82183;DHT22;71763;52.220;13.000;2023-08-30T10:11:36;23.20;58.20
82183;DHT22;71763;52.220;13.000;2023-08-30T10:14:03;23.50;58.50
82183;DHT22;71763;52.220;13.000;2023-08-30T10:16:35;24.00;59.00
82183;DHT22;71763;52.220;13.000;2023-08-30T10:19:09;24.70;57.30
82183;DHT22;71763;52.220;13.000;2023-08-30T10:21:36;25.40;56.10
82183;DHT22;71763;52.220;13.000;2023-08-30T10:24:03;25.80;55.20
82183;DHT22;71763;52.220;13.000;2023-08-30T10:26:31;25.80;54.80
82183;DHT22;71763;52.220;13.000;2023-08-30T10:28:57;25.40;55.70
82183;DHT22;71763;52.220;13.000;2023-08-30T10:31:23;25.00;56.60
82183;DHT22;71763;52.220;13.000;2023-08-30T10:33:49;24.70;57.60
82183;DHT22;71763;52.220;13.000;2023-08-30T10:36:26;24.70;58.00
82183;DHT22;71763;52.220;13.000;2023-08-30T10:38:53;25.20;57.30
82183;DHT22;71763;52.220;13.000;2023-08-30T10:41:24;25.00;56.80
82183;DHT22;71763;52.220;13.000;2023-08-30T10:43:57;24.90;57.20
82183;DHT22;71763;52.220;13.000;2023-08-30T10:46:32;24.80;57.60
82183;DHT22;71763;52.220;13.000;2023-08-30T10:49:13;24.70;57.80
82183;DHT22;71763;52.220;13.000;2023-08-30T10:51:42;24.70;57.80
82183;DHT22;71763;52.220;13.000;2023-08-30T10:54:14;24.80;57.70
82183;DHT22;71763;52.220;13.000;2023-08-30T10:56:57;24.90;57.20
82183;DHT22;71763;52.220;13.000;2023-08-30T10:59:25;25.20;56.80
82183;DHT22;71763;52.220;13.000;2023-08-30T11:01:51;25.30;56.20
82183;DHT22;71763;52.220;13.000;2023-08-30T11:04:18;25.30;56.20
82183;DHT22;71763;52.220;13.000;2023-08-30T11:06:47;25.20;56.20
82183;DHT22;71763;52.220;13.000;2023-08-30T11:09:14;25.10;56.20
82183;DHT22;71763;52.220;13.000;2023-08-30T11:11:43;25.00;56.60
82183;DHT22;71763;52.220;13.000;2023-08-30T11:14:09;24.90;56.80
82183;DHT22;71763;52.220;13.000;2023-08-30T11:16:36;24.60;56.90
82183;DHT22;71763;52.220;13.000;2023-08-30T11:19:03;24.40;57.30
82183;DHT22;71763;52.220;13.000;2023-08-30T11:21:30;24.20;57.70
82183;DHT22;71763;52.220;13.000;2023-08-30T11:23:56;24.10;57.80
82183;DHT22;71763;52.220;13.000;2023-08-30T11:26:22;24.00;57.90
82183;DHT22;71763;52.220;13.000;2023-08-30T11:28:47;23.90;57.90
82183;DHT22;71763;52.220;13.000;2023-08-30T11:31:25;23.90;57.70
82183;DHT22;71763;52.220;13.000;2023-08-30T11:33:58;24.00;57.30
82183;DHT22;71763;52.220;13.000;2023-08-30T11:36:26;24.20;57.00
82183;DHT22;71763;52.220;13.000;2023-08-30T11:38:56;24.30;56.70
82183;DHT22;71763;52.220;13.000;2023-08-30T11:41:22;24.40;56.30
82183;DHT22;71763;52.220;13.000;2023-08-30T11:43:48;24.80;55.90
82183;DHT22;71763;52.220;13.000;2023-08-30T11:46:13;25.00;55.20
82183;DHT22;71763;52.220;13.000;2023-08-30T11:48:42;24.90;55.00
82183;DHT22;71763;52.220;13.000;2023-08-30T11:51:08;24.70;55.20
82183;DHT22;71763;52.220;13.000;2023-08-30T11:53:34;24.50;55.70
82183;DHT22;71763;52.220;13.000;2023-08-30T11:56:00;24.30;56.10
82183;DHT22;71763;52.220;13.000;2023-08-30T11:58:27;24.10;56.40
82183;DHT22;71763;52.220;13.000;2023-08-30T12:00:54;23.90;56.80
82183;DHT22;71763;52.220;13.000;2023-08-30T12:03:22;23.80;57.10
82183;DHT22;71763;52.220;13.000;2023-08-30T12:05:49;23.70;57.10
82183;DHT22;71763;52.220;13.000;2023-08-30T12:08:39;23.70;57.20
82183;DHT22;71763;52.220;13.000;2023-08-30T12:11:04;24.20;56.60
82183;DHT22;71763;52.220;13.000;2023-08-30T12:13:32;24.80;55.40
82183;DHT22;71763;52.220;13.000;2023-08-30T12:15:59;25.50;54.30
82183;DHT22;71763;52.220;13.000;2023-08-30T12:18:28;26.10;53.10
82183;DHT22;71763;52.220;13.000;2023-08-30T12:20:58;26.60;52.40
82183;DHT22;71763;52.220;13.000;2023-08-30T12:23:25;27.00;51.70
82183;DHT22;71763;52.220;13.000;2023-08-30T12:25:57;27.10;51.40
82183;DHT22;71763;52.220;13.000;2023-08-30T12:28:23;27.20;51.50
82183;DHT22;71763;52.220;13.000;2023-08-30T12:30:48;27.30;51.40
82183;DHT22;71763;52.220;13.000;2023-08-30T12:33:16;27.30;51.50
82183;DHT22;71763;52.220;13.000;2023-08-30T12:35:42;27.40;51.60
82183;DHT22;71763;52.220;13.000;2023-08-30T12:38:07;27.60;51.50
82183;DHT22;71763;52.220;13.000;2023-08-30T12:40:35;27.70;51.10
82183;DHT22;71763;52.220;13.000;2023-08-30T12:43:01;27.50;51.20
82183;DHT22;71763;52.220;13.000;2023-08-30T12:45:26;27.10;52.10
82183;DHT22;71763;52.220;13.000;2023-08-30T12:47:51;26.90;52.80
82183;DHT22;71763;52.220;13.000;2023-08-30T12:50:17;26.80;52.90
82183;DHT22;71763;52.220;13.000;2023-08-30T12:52:42;26.80;52.90
82183;DHT22;71763;52.220;13.000;2023-08-30T12:55:08;26.80;53.00
82183;DHT22;71763;52.220;13.000;2023-08-30T12:57:34;26.80;53.00
82183;DHT22;71763;52.220;13.000;2023-08-30T12:59:59;26.70;53.00
82183;DHT22;71763;52.220;13.000;2023-08-30T13:02:25;26.60;53.20
82183;DHT22;71763;52.220;13.000;2023-08-30T13:04:50;26.60;53.40
82183;DHT22;71763;52.220;13.000;2023-08-30T13:07:16;26.60;53.40
82183;DHT22;71763;52.220;13.000;2023-08-30T13:09:41;26.60;53.30
82183;DHT22;71763;52.220;13.000;2023-08-30T13:12:07;26.70;53.00
82183;DHT22;71763;52.220;13.000;2023-08-30T13:14:32;26.90;52.70
82183;DHT22;71763;52.220;13.000;2023-08-30T13:16:58;26.70;52.70
82183;DHT22;71763;52.220;13.000;2023-08-30T13:19:23;26.40;53.10
82183;DHT22;71763;52.220;13.000;2023-08-30T13:21:49;26.20;53.50
82183;DHT22;71763;52.220;13.000;2023-08-30T13:24:14;25.90;53.80
82183;DHT22;71763;52.220;13.000;2023-08-30T13:26:41;25.60;54.20
82183;DHT22;71763;52.220;13.000;2023-08-30T13:29:07;25.40;54.50
82183;DHT22;71763;52.220;13.000;2023-08-30T13:31:33;25.10;54.60
82183;DHT22;71763;52.220;13.000;2023-08-30T13:33:58;24.90;55.00
82183;DHT22;71763;52.220;13.000;2023-08-30T13:36:24;24.70;55.10
82183;DHT22;71763;52.220;13.000;2023-08-30T13:38:50;24.50;55.20
82183;DHT22;71763;52.220;13.000;2023-08-30T13:41:15;24.30;55.40
82183;DHT22;71763;52.220;13.000;2023-08-30T13:43:40;24.20;55.40
82183;DHT22;71763;52.220;13.000;2023-08-30T13:46:06;24.20;55.50
82183;DHT22;71763;52.220;13.000;2023-08-30T13:48:31;24.30;55.30
82183;DHT22;71763;52.220;13.000;2023-08-30T13:50:57;24.30;55.00
82183;DHT22;71763;52.220;13.000;2023-08-30T13:53:22;24.10;54.90
82183;DHT22;71763;52.220;13.000;2023-08-30T13:55:49;24.00;54.90
82183;DHT22;71763;52.220;13.000;2023-08-30T13:58:15;24.00;55.00
82183;DHT22;71763;52.220;13.000;2023-08-30T14:00:41;24.10;54.80
82183;DHT22;71763;52.220;13.000;2023-08-30T14:03:06;24.20;54.40
82183;DHT22;71763;52.220;13.000;2023-08-30T14:05:33;24.30;54.00
82183;DHT22;71763;52.220;13.000;2023-08-30T14:07:58;24.30;53.90
82183;DHT22;71763;52.220;13.000;2023-08-30T14:10:24;24.00;54.00
82183;DHT22;71763;52.220;13.000;2023-08-30T14:12:49;23.90;54.30
82183;DHT22;71763;52.220;13.000;2023-08-30T14:15:15;23.90;54.40
82183;DHT22;71763;52.220;13.000;2023-08-30T14:17:41;24.10;54.00
82183;DHT22;71763;52.220;13.000;2023-08-30T14:20:07;24.30;53.70
82183;DHT22;71763;52.220;13.000;2023-08-30T14:22:33;24.30;53.60
82183;DHT22;71763;52.220;13.000;2023-08-30T14:24:58;24.20;53.50
82183;DHT22;71763;52.220;13.000;2023-08-30T14:27:24;24.10;53.50
82183;DHT22;71763;52.220;13.000;2023-08-30T14:29:49;24.00;53.40
82183;DHT22;71763;52.220;13.000;2023-08-30T14:32:15;23.80;53.60
82183;DHT22;71763;52.220;13.000;2023-08-30T14:34:40;23.70;53.80
82183;DHT22;71763;52.220;13.000;2023-08-30T14:37:06;23.50;53.90
82183;DHT22;71763;52.220;13.000;2023-08-30T14:39:31;23.30;54.10
82183;DHT22;71763;52.220;13.000;2023-08-30T14:41:57;23.10;54.30
82183;DHT22;71763;52.220;13.000;2023-08-30T14:44:22;22.80;54.40
82183;DHT22;71763;52.220;13.000;2023-08-30T14:46:51;22.70;54.60
82183;DHT22;71763;52.220;13.000;2023-08-30T14:49:16;22.60;54.70
82183;DHT22;71763;52.220;13.000;2023-08-30T14:51:42;22.60;54.60
82183;DHT22;71763;52.220;13.000;2023-08-30T14:54:08;22.70;54.30
82183;DHT22;71763;52.220;13.000;2023-08-30T14:56:33;22.70;54.10
82183;DHT22;71763;52.220;13.000;2023-08-30T14:58:59;22.80;53.80
82183;DHT22;71763;52.220;13.000;2023-08-30T15:01:24;22.90;53.60
82183;DHT22;71763;52.220;13.000;2023-08-30T15:03:50;22.80;53.40
82183;DHT22;71763;52.220;13.000;2023-08-30T15:06:15;22.70;53.50
82183;DHT22;71763;52.220;13.000;2023-08-30T15:08:41;22.60;53.60
82183;DHT22;71763;52.220;13.000;2023-08-30T15:11:07;22.50;53.60
82183;DHT22;71763;52.220;13.000;2023-08-30T15:13:34;22.40;53.70
82183;DHT22;71763;52.220;13.000;2023-08-30T15:16:00;22.40;53.70